createdAt,value
2022-10-22T19:24:07.201Z,20.91
2022-10-22T19:26:33.794Z,20.86
2022-10-22T19:29:00.751Z,20.82
2022-10-22T19:31:29.936Z,20.82
2022-10-22T19:33:57.177Z,20.87
2022-10-22T19:36:25.205Z,20.91
2022-10-22T19:38:51.802Z,20.97
2022-10-22T19:41:19.823Z,21.00
2022-10-22T19:43:49.367Z,21.00
2022-10-22T19:46:16.372Z,20.98
2022-10-22T19:48:42.958Z,20.95
2022-10-22T19:51:11.254Z,20.95
2022-10-22T19:53:38.712Z,20.87
2022-10-22T19:56:07.039Z,20.80
2022-10-22T19:58:33.753Z,20.75
2022-10-22T20:01:11.441Z,20.67
2022-10-22T20:03:38.870Z,20.68
2022-10-22T20:06:07.627Z,20.60
2022-10-22T20:08:38.005Z,20.65
2022-10-22T20:11:10.687Z,20.61
2022-10-22T20:13:37.620Z,20.65
2022-10-22T20:16:05.101Z,20.54
2022-10-22T20:18:34.011Z,20.50
2022-10-22T20:21:07.670Z,20.54
2022-10-22T20:23:34.354Z,20.48
2022-10-22T20:26:00.902Z,20.45
2022-10-22T20:28:27.434Z,20.39
2022-10-22T20:30:53.941Z,20.33
2022-10-22T20:33:20.506Z,20.35
2022-10-22T20:35:47.066Z,20.37
2022-10-22T20:38:14.701Z,20.36
2022-10-22T20:40:41.469Z,20.41
2022-10-22T20:43:10.539Z,20.30
2022-10-22T20:45:38.846Z,20.27
2022-10-22T20:48:06.008Z,20.26
2022-10-22T20:50:32.830Z,20.22
2022-10-22T20:52:59.721Z,20.25
2022-10-22T20:55:26.555Z,20.21
2022-10-22T20:57:53.025Z,20.25
2022-10-22T21:00:19.584Z,20.16
2022-10-22T21:02:46.193Z,20.19
2022-10-22T21:05:12.686Z,20.14
2022-10-22T21:07:39.391Z,20.11
2022-10-22T21:10:06.493Z,20.08
2022-10-22T21:12:32.989Z,20.11
2022-10-22T21:14:59.548Z,20.10
2022-10-22T21:17:26.033Z,20.07
2022-10-22T21:19:52.554Z,20.06
2022-10-22T21:22:19.059Z,20.04
2022-10-22T21:24:45.543Z,20.07
2022-10-22T21:27:12.073Z,20.06
2022-10-22T21:29:38.713Z,20.03
2022-10-22T21:32:05.389Z,20.05
2022-10-22T21:34:36.727Z,20.04
2022-10-22T21:37:05.458Z,20.02
2022-10-22T21:39:31.959Z,20.03
2022-10-22T21:41:58.466Z,20.04
2022-10-22T21:44:24.987Z,20.04
2022-10-22T21:46:51.481Z,20.02
2022-10-22T21:49:18.124Z,20.00
2022-10-22T21:51:44.724Z,20.01
2022-10-22T21:54:12.541Z,20.01
2022-10-22T21:56:39.434Z,19.97
2022-10-22T21:59:06.593Z,19.97
2022-10-22T22:01:33.305Z,19.98
2022-10-22T22:03:59.898Z,19.97
2022-10-22T22:06:30.804Z,19.91
2022-10-22T22:08:59.583Z,19.90
2022-10-22T22:11:27.942Z,19.89
2022-10-22T22:13:55.537Z,19.91
2022-10-22T22:16:27.275Z,19.90
2022-10-22T22:18:56.800Z,19.85
2022-10-22T22:21:23.372Z,19.85
2022-10-22T22:23:50.731Z,19.89
2022-10-22T22:26:25.273Z,19.84
2022-10-22T22:28:55.387Z,19.83
2022-10-22T22:31:25.332Z,19.82
2022-10-22T22:33:57.642Z,19.78
2022-10-22T22:36:24.109Z,19.79
2022-10-22T22:38:55.182Z,19.77
2022-10-22T22:41:21.797Z,19.77
2022-10-22T22:43:48.282Z,19.78
2022-10-22T22:46:14.830Z,19.73
2022-10-22T22:48:41.323Z,19.71
2022-10-22T22:51:08.054Z,19.73
2022-10-22T22:53:34.777Z,19.72
2022-10-22T22:56:11.305Z,19.71
2022-10-22T22:58:40.411Z,19.68
2022-10-22T23:01:20.517Z,19.68
2022-10-22T23:03:52.274Z,19.66
2022-10-22T23:06:18.767Z,19.66
2022-10-22T23:08:49.453Z,19.65
2022-10-22T23:11:16.041Z,19.62
2022-10-22T23:13:42.952Z,19.65
2022-10-22T23:16:13.974Z,19.63
2022-10-22T23:18:40.787Z,19.61
2022-10-22T23:21:12.321Z,19.63
2022-10-22T23:23:38.804Z,19.64
2022-10-22T23:26:05.397Z,19.58
2022-10-22T23:28:31.915Z,19.60
2022-10-22T23:30:58.533Z,19.59
2022-10-22T23:33:24.993Z,19.62
2022-10-22T23:35:51.480Z,19.58
2022-10-22T23:38:17.957Z,19.61
2022-10-22T23:40:44.483Z,19.58
2022-10-22T23:43:11.009Z,19.57
2022-10-22T23:45:37.536Z,19.54
2022-10-22T23:48:04.196Z,19.55
2022-10-22T23:50:30.724Z,19.54
2022-10-22T23:52:57.220Z,19.50
2022-10-22T23:55:23.722Z,19.51
2022-10-22T23:57:50.248Z,19.49
